createdAt,value
2017-09-18T00:01:11.619Z,2.80
2017-09-18T00:03:40.062Z,2.65
2017-09-18T00:06:08.484Z,2.22
2017-09-18T00:08:36.875Z,2.97
2017-09-18T00:11:05.287Z,2.17
2017-09-18T00:13:33.681Z,2.00
2017-09-18T00:16:02.043Z,2.45
2017-09-18T00:18:30.457Z,2.45
2017-09-18T00:20:58.841Z,2.37
2017-09-18T00:23:27.236Z,1.80
2017-09-18T00:25:55.744Z,2.67
2017-09-18T00:28:24.886Z,2.25
2017-09-18T00:30:53.265Z,1.85
2017-09-18T00:33:21.705Z,2.65
2017-09-18T00:35:50.851Z,2.53
2017-09-18T00:38:19.886Z,2.17
2017-09-18T00:40:48.292Z,2.37
2017-09-18T00:43:16.656Z,2.53
2017-09-18T00:45:45.822Z,2.92
2017-09-18T00:48:14.249Z,2.78
2017-09-18T00:50:42.800Z,2.95
2017-09-18T00:53:12.055Z,2.85
2017-09-18T00:55:40.573Z,2.60
2017-09-18T00:58:09.723Z,2.95
2017-09-18T01:00:38.127Z,2.78
2017-09-18T01:03:06.589Z,3.53
2017-09-18T01:05:34.989Z,3.65
2017-09-18T01:08:03.366Z,3.35
2017-09-18T01:10:31.834Z,3.00
2017-09-18T01:13:00.200Z,4.25
2017-09-18T01:15:28.669Z,3.42
2017-09-18T01:17:57.068Z,4.32
2017-09-18T01:20:25.476Z,4.10
2017-09-18T01:22:53.933Z,3.85
2017-09-18T01:25:22.369Z,4.47
2017-09-18T01:27:50.768Z,3.80
2017-09-18T01:30:19.163Z,5.07
2017-09-18T01:32:47.593Z,4.40
2017-09-18T01:35:16.802Z,4.18
2017-09-18T01:37:45.233Z,4.93
2017-09-18T01:40:13.636Z,5.25
2017-09-18T01:42:42.012Z,5.12
2017-09-18T01:45:10.389Z,6.22
2017-09-18T01:47:38.795Z,5.68
2017-09-18T01:50:07.177Z,4.87
2017-09-18T01:52:35.538Z,5.37
2017-09-18T01:55:04.732Z,5.65
2017-09-18T01:57:33.874Z,5.47
2017-09-18T02:00:02.281Z,5.68
2017-09-18T02:02:30.690Z,7.28
2017-09-18T02:04:59.833Z,4.90
2017-09-18T02:07:28.208Z,6.45
2017-09-18T02:09:56.624Z,6.40
2017-09-18T02:12:24.993Z,6.05
2017-09-18T02:14:53.353Z,5.90
2017-09-18T02:17:22.034Z,4.60
2017-09-18T02:19:50.402Z,5.90
2017-09-18T02:22:19.041Z,5.47
2017-09-18T02:24:48.224Z,6.07
2017-09-18T02:27:16.630Z,5.75
2017-09-18T02:29:45.763Z,6.05
2017-09-18T02:32:14.251Z,5.97
2017-09-18T02:34:42.622Z,5.05
2017-09-18T02:37:11.005Z,5.62
2017-09-18T02:39:39.460Z,5.62
2017-09-18T02:42:07.840Z,5.00
2017-09-18T02:44:36.248Z,6.12
2017-09-18T02:47:04.724Z,6.68
2017-09-18T02:49:33.093Z,5.95
2017-09-18T02:52:01.464Z,7.15
2017-09-18T02:54:29.861Z,6.87
2017-09-18T02:56:58.230Z,6.70
2017-09-18T02:59:26.614Z,6.82
2017-09-18T03:01:55.023Z,7.18
2017-09-18T03:04:23.411Z,5.10
2017-09-18T03:06:51.790Z,6.00
2017-09-18T03:09:20.199Z,5.05
2017-09-18T03:11:48.567Z,3.80
2017-09-18T03:14:17.699Z,4.25
2017-09-18T03:16:46.105Z,4.60
2017-09-18T03:19:14.474Z,3.35
2017-09-18T03:21:42.829Z,3.37
2017-09-18T03:24:11.695Z,3.25
2017-09-18T03:26:40.072Z,3.67
2017-09-18T03:29:08.451Z,2.58
2017-09-18T03:31:36.869Z,3.05
2017-09-18T03:34:05.243Z,4.12
2017-09-18T03:36:33.609Z,2.40
2017-09-18T03:39:02.009Z,2.60
2017-09-18T03:41:30.400Z,2.80
2017-09-18T03:43:58.782Z,2.47
2017-09-18T03:46:27.203Z,2.85
2017-09-18T03:48:55.593Z,2.42
2017-09-18T03:51:23.961Z,2.62
2017-09-18T03:53:52.361Z,3.20
2017-09-18T03:56:21.164Z,2.53
2017-09-18T03:58:49.613Z,2.12
2017-09-18T04:01:18.034Z,2.95
2017-09-18T04:03:46.448Z,2.75
2017-09-18T04:06:15.586Z,2.03
2017-09-18T04:08:44.017Z,2.75
2017-09-18T04:11:12.384Z,1.98
2017-09-18T04:13:40.761Z,2.40
2017-09-18T04:16:09.342Z,2.55
2017-09-18T04:18:37.733Z,2.03
2017-09-18T04:21:06.902Z,2.00
2017-09-18T04:23:35.324Z,2.45
2017-09-18T04:26:04.817Z,1.95
2017-09-18T04:28:33.254Z,1.90
2017-09-18T04:31:01.689Z,2.10
2017-09-18T04:33:30.827Z,2.72
2017-09-18T04:35:59.238Z,1.75
2017-09-18T04:38:27.639Z,1.85
2017-09-18T04:40:56.770Z,1.98
2017-09-18T04:43:25.150Z,2.00
2017-09-18T04:45:53.556Z,1.87
2017-09-18T04:48:21.930Z,1.95
2017-09-18T04:50:50.313Z,1.80
2017-09-18T04:53:18.728Z,1.65
2017-09-18T04:55:47.858Z,1.87
2017-09-18T04:58:16.233Z,1.50
2017-09-18T05:00:44.638Z,56.03
2017-09-18T05:03:13.016Z,59.22
2017-09-18T05:05:41.381Z,3.90
2017-09-18T05:08:09.769Z,2.05
2017-09-18T05:10:38.142Z,2.40
2017-09-18T05:13:06.506Z,1.45
2017-09-18T05:15:34.930Z,3.60
2017-09-18T05:18:03.291Z,3.62
2017-09-18T05:20:31.665Z,1.10
2017-09-18T05:23:00.058Z,0.90
2017-09-18T05:25:28.617Z,1.92
2017-09-18T05:27:57.205Z,1.55
2017-09-18T05:30:25.611Z,0.82
2017-09-18T05:32:55.506Z,0.80
2017-09-18T05:35:23.885Z,5.57
2017-09-18T05:37:52.339Z,1.20
2017-09-18T05:40:20.700Z,0.90
2017-09-18T05:42:49.071Z,1.00
2017-09-18T05:45:17.471Z,0.82
2017-09-18T05:47:45.829Z,1.58
2017-09-18T05:50:14.205Z,0.65
2017-09-18T05:52:42.694Z,0.80
2017-09-18T05:55:11.102Z,0.82
2017-09-18T05:57:39.501Z,0.82
2017-09-18T06:00:08.041Z,0.80
2017-09-18T06:02:36.615Z,0.60
2017-09-18T06:05:04.993Z,0.95
2017-09-18T06:07:33.424Z,1.80
2017-09-18T06:10:01.818Z,0.50
2017-09-18T06:12:30.204Z,0.60
2017-09-18T06:14:58.610Z,1.42
2017-09-18T06:17:26.988Z,1.02
2017-09-18T06:19:55.367Z,1.30
2017-09-18T06:22:23.782Z,0.80
2017-09-18T06:24:52.158Z,1.17
2017-09-18T06:27:20.537Z,1.00
2017-09-18T06:29:49.271Z,0.90
2017-09-18T06:32:18.903Z,0.90
2017-09-18T06:34:47.282Z,1.00
2017-09-18T06:37:15.702Z,0.90
2017-09-18T06:39:44.195Z,3.55
2017-09-18T06:42:12.579Z,1.60
2017-09-18T06:44:41.010Z,1.00
2017-09-18T06:47:09.407Z,0.77
2017-09-18T06:49:37.784Z,0.77
2017-09-18T06:52:06.192Z,0.65
2017-09-18T06:54:34.567Z,0.60
2017-09-18T06:57:02.952Z,0.60
2017-09-18T06:59:31.386Z,1.65
2017-09-18T07:01:59.798Z,0.47
2017-09-18T07:04:28.176Z,0.43
2017-09-18T07:06:56.638Z,0.50
2017-09-18T07:09:25.042Z,0.65
2017-09-18T07:11:53.418Z,0.52
2017-09-18T07:14:21.880Z,0.50
2017-09-18T07:16:50.239Z,0.45
2017-09-18T07:19:18.609Z,0.62
2017-09-18T07:21:47.040Z,0.88
2017-09-18T07:24:15.438Z,1.15
2017-09-18T07:26:44.611Z,0.95
2017-09-18T07:29:13.322Z,0.73
2017-09-18T07:31:42.730Z,0.80
2017-09-18T07:34:11.935Z,0.40
2017-09-18T07:36:40.370Z,0.50
2017-09-18T07:39:08.754Z,0.60
2017-09-18T07:41:37.150Z,0.70
2017-09-18T07:44:05.559Z,0.60
2017-09-18T07:46:33.953Z,0.70
2017-09-18T07:49:02.336Z,0.80
2017-09-18T07:51:30.783Z,0.57
2017-09-18T07:53:59.963Z,0.50
2017-09-18T07:56:28.370Z,0.70
2017-09-18T07:58:56.800Z,0.73
2017-09-18T08:01:25.185Z,0.65
2017-09-18T08:03:53.595Z,0.80
2017-09-18T08:06:22.775Z,0.45
2017-09-18T08:08:51.150Z,0.70
2017-09-18T08:11:19.531Z,0.68
2017-09-18T08:13:47.963Z,0.65
2017-09-18T08:16:16.342Z,0.57
2017-09-18T08:18:44.751Z,0.50
2017-09-18T08:21:13.206Z,0.62
2017-09-18T08:23:41.605Z,0.82
2017-09-18T08:26:10.013Z,0.60
2017-09-18T08:28:39.187Z,0.50
2017-09-18T08:31:07.578Z,0.60
2017-09-18T08:33:35.959Z,0.50
2017-09-18T08:36:04.403Z,0.70
2017-09-18T08:38:32.775Z,0.52
2017-09-18T08:41:01.160Z,0.80
2017-09-18T08:43:29.583Z,0.88
2017-09-18T08:45:58.736Z,0.68
2017-09-18T08:48:27.129Z,0.50
2017-09-18T08:50:55.540Z,0.68
2017-09-18T08:53:24.691Z,0.70
2017-09-18T08:55:53.069Z,0.65
2017-09-18T08:58:21.494Z,0.45
2017-09-18T09:00:50.636Z,0.80
2017-09-18T09:03:19.027Z,0.60
2017-09-18T09:05:47.487Z,0.50
2017-09-18T09:08:15.951Z,0.75
2017-09-18T09:10:44.391Z,0.45
2017-09-18T09:13:12.882Z,0.52
2017-09-18T09:15:42.043Z,0.70
2017-09-18T09:18:11.200Z,0.50
2017-09-18T09:20:39.643Z,0.50
2017-09-18T09:23:08.039Z,0.47
2017-09-18T09:25:37.220Z,0.50
2017-09-18T09:28:05.658Z,0.60
2017-09-18T09:30:34.195Z,0.60
2017-09-18T09:33:03.418Z,0.55
2017-09-18T09:35:31.979Z,0.57
2017-09-18T09:38:01.252Z,0.45
2017-09-18T09:40:29.681Z,0.52
2017-09-18T09:42:58.136Z,0.60
2017-09-18T09:45:26.619Z,0.40
2017-09-18T09:47:55.782Z,0.40
2017-09-18T09:50:24.960Z,0.47
2017-09-18T09:52:53.391Z,0.55
2017-09-18T09:55:22.586Z,1.00
2017-09-18T09:57:51.807Z,0.52
2017-09-18T10:00:20.198Z,0.93
2017-09-18T10:02:48.642Z,0.40
2017-09-18T10:05:17.100Z,0.45
2017-09-18T10:07:45.481Z,0.50
2017-09-18T10:10:13.879Z,0.40
2017-09-18T10:12:42.291Z,0.50
2017-09-18T10:15:10.742Z,0.55
2017-09-18T10:17:39.945Z,0.30
2017-09-18T10:20:09.153Z,0.80
2017-09-18T10:22:38.310Z,0.40
2017-09-18T10:25:06.684Z,0.40
2017-09-18T10:27:35.146Z,0.30
2017-09-18T10:30:04.330Z,0.40
2017-09-18T10:32:32.714Z,1.75
2017-09-18T10:35:01.158Z,0.62
2017-09-18T10:37:30.514Z,0.45
2017-09-18T10:39:58.928Z,0.50
2017-09-18T10:42:28.124Z,0.40
2017-09-18T10:44:57.273Z,0.30
2017-09-18T10:47:25.674Z,0.40
2017-09-18T10:49:54.097Z,0.50
2017-09-18T10:52:22.479Z,0.50
2017-09-18T10:54:50.857Z,0.30
2017-09-18T10:57:19.265Z,0.30
2017-09-18T10:59:47.651Z,0.40
2017-09-18T11:02:16.053Z,0.30
2017-09-18T11:04:44.455Z,0.32
2017-09-18T11:07:13.606Z,0.30
2017-09-18T11:09:42.006Z,0.73
2017-09-18T11:12:10.444Z,0.30
2017-09-18T11:14:38.855Z,0.45
2017-09-18T11:17:07.237Z,0.47
2017-09-18T11:19:35.649Z,0.30
2017-09-18T11:22:04.790Z,0.52
2017-09-18T11:24:33.193Z,0.32
2017-09-18T11:27:01.599Z,1.05
2017-09-18T11:29:30.272Z,0.70
2017-09-18T11:31:58.684Z,0.40
2017-09-18T11:34:27.111Z,0.50
2017-09-18T11:36:55.498Z,0.40
2017-09-18T11:39:23.908Z,0.30
2017-09-18T11:41:53.106Z,0.30
2017-09-18T11:44:22.251Z,0.30
2017-09-18T11:46:50.659Z,0.50
2017-09-18T11:49:19.069Z,0.40
2017-09-18T11:51:47.447Z,0.40
2017-09-18T11:54:17.411Z,0.40
2017-09-18T11:56:45.841Z,0.60
2017-09-18T11:59:14.992Z,0.40
2017-09-18T12:01:43.396Z,0.60
2017-09-18T12:04:11.810Z,0.70
2017-09-18T12:06:40.192Z,0.80
2017-09-18T12:09:08.572Z,0.57
2017-09-18T12:11:37.003Z,0.40
2017-09-18T12:14:05.372Z,0.37
2017-09-18T12:16:35.051Z,0.30
2017-09-18T12:19:03.479Z,0.47
2017-09-18T12:21:31.854Z,0.50
2017-09-18T12:24:00.228Z,0.57
2017-09-18T12:26:28.635Z,0.60
2017-09-18T12:28:57.040Z,0.40
2017-09-18T12:31:25.415Z,0.30
2017-09-18T12:33:53.831Z,0.30
2017-09-18T12:36:22.247Z,0.43
2017-09-18T12:38:50.640Z,0.50
2017-09-18T12:41:19.074Z,0.40
2017-09-18T12:43:47.464Z,1.33
2017-09-18T12:46:15.839Z,1.10
2017-09-18T12:48:44.249Z,0.53
2017-09-18T12:51:12.629Z,0.40
2017-09-18T12:53:41.001Z,0.60
2017-09-18T12:56:09.415Z,0.87
2017-09-18T12:58:37.819Z,0.57
2017-09-18T13:01:06.251Z,1.37
2017-09-18T13:03:34.688Z,0.67
2017-09-18T13:06:03.082Z,0.40
2017-09-18T13:08:32.243Z,0.47
2017-09-18T13:11:00.681Z,0.53
2017-09-18T13:13:29.065Z,0.50
2017-09-18T13:15:57.443Z,0.60
2017-09-18T13:18:25.868Z,0.60
2017-09-18T13:20:54.246Z,0.60
2017-09-18T13:23:22.633Z,0.60
2017-09-18T13:25:51.057Z,0.40
2017-09-18T13:28:19.431Z,0.40
2017-09-18T13:30:47.809Z,0.40
2017-09-18T13:33:16.222Z,0.50
2017-09-18T13:35:44.607Z,0.57
2017-09-18T13:38:12.981Z,0.67
2017-09-18T13:40:41.398Z,0.60
2017-09-18T13:43:09.782Z,0.43
2017-09-18T13:45:38.935Z,0.60
2017-09-18T13:48:07.362Z,0.60
2017-09-18T13:50:36.523Z,0.40
2017-09-18T13:53:04.906Z,0.50
2017-09-18T13:55:33.322Z,0.37
2017-09-18T13:58:01.699Z,0.80
2017-09-18T14:00:30.082Z,0.70
2017-09-18T14:02:58.494Z,0.60
2017-09-18T14:05:26.870Z,0.50
2017-09-18T14:07:55.246Z,0.50
2017-09-18T14:10:25.365Z,0.40
2017-09-18T14:12:53.857Z,0.50
2017-09-18T14:15:22.247Z,0.60
2017-09-18T14:17:50.655Z,0.47
2017-09-18T14:20:19.799Z,0.93
2017-09-18T14:22:48.201Z,0.47
2017-09-18T14:25:16.628Z,0.50
2017-09-18T14:27:45.020Z,0.50
2017-09-18T14:30:13.413Z,0.70
2017-09-18T14:32:41.866Z,1.62
2017-09-18T14:35:10.247Z,0.75
2017-09-18T14:37:38.650Z,0.60
2017-09-18T14:40:07.096Z,0.40
2017-09-18T14:42:36.236Z,0.50
2017-09-18T14:45:05.474Z,0.60
2017-09-18T14:47:33.882Z,0.40
2017-09-18T14:50:02.254Z,0.47
2017-09-18T14:52:31.399Z,0.60
2017-09-18T14:54:59.819Z,0.40
2017-09-18T14:57:28.995Z,0.50
2017-09-18T14:59:57.372Z,0.50
2017-09-18T15:02:25.801Z,0.40
2017-09-18T15:04:54.249Z,0.55
2017-09-18T15:07:23.406Z,0.40
2017-09-18T15:09:51.811Z,0.50
2017-09-18T15:12:20.198Z,0.40
2017-09-18T15:14:48.604Z,0.30
2017-09-18T15:17:18.249Z,0.40
2017-09-18T15:19:46.646Z,0.30
2017-09-18T15:22:15.034Z,0.60
2017-09-18T15:24:43.443Z,0.73
2017-09-18T15:27:11.830Z,0.60
2017-09-18T15:29:40.213Z,0.50
2017-09-18T15:32:08.621Z,0.60
2017-09-18T15:34:37.101Z,0.90
2017-09-18T15:37:05.472Z,0.52
2017-09-18T15:39:35.031Z,0.60
2017-09-18T15:42:04.179Z,0.95
2017-09-18T15:44:32.577Z,0.60
2017-09-18T15:47:00.985Z,0.50
2017-09-18T15:49:29.359Z,0.35
2017-09-18T15:51:58.514Z,0.50
2017-09-18T15:54:26.929Z,0.60
2017-09-18T15:56:55.369Z,0.57
2017-09-18T15:59:23.774Z,0.57
2017-09-18T16:01:52.189Z,0.30
2017-09-18T16:04:20.571Z,0.40
2017-09-18T16:06:48.960Z,0.73
2017-09-18T16:09:17.676Z,0.55
2017-09-18T16:11:46.050Z,0.47
2017-09-18T16:14:14.440Z,0.60
2017-09-18T16:16:42.848Z,0.37
2017-09-18T16:19:11.228Z,0.47
2017-09-18T16:21:40.399Z,0.50
2017-09-18T16:24:08.827Z,0.70
2017-09-18T16:26:37.292Z,0.80
2017-09-18T16:29:06.475Z,0.45
2017-09-18T16:31:34.874Z,0.50
2017-09-18T16:34:04.030Z,0.40
2017-09-18T16:36:32.416Z,0.40
2017-09-18T16:39:00.828Z,0.43
2017-09-18T16:41:30.004Z,0.50
2017-09-18T16:43:58.377Z,0.68
2017-09-18T16:46:26.812Z,0.43
2017-09-18T16:48:55.219Z,0.50
2017-09-18T16:51:24.372Z,0.60
2017-09-18T16:53:52.803Z,1.73
2017-09-18T16:56:21.195Z,0.90
2017-09-18T16:58:49.580Z,1.15
2017-09-18T17:01:17.984Z,1.00
2017-09-18T17:03:46.463Z,1.17
2017-09-18T17:06:14.858Z,0.73
2017-09-18T17:08:43.280Z,1.08
2017-09-18T17:11:11.692Z,0.70
2017-09-18T17:13:40.090Z,0.95
2017-09-18T17:16:08.530Z,1.50
2017-09-18T17:18:37.678Z,2.40
2017-09-18T17:21:06.071Z,6.15
2017-09-18T17:23:34.506Z,5.20
2017-09-18T17:26:03.047Z,4.15
2017-09-18T17:28:31.431Z,4.95
2017-09-18T17:30:59.964Z,3.65
2017-09-18T17:33:28.357Z,5.25
2017-09-18T17:35:56.748Z,6.25
2017-09-18T17:38:25.413Z,5.37
2017-09-18T17:40:53.792Z,6.57
2017-09-18T17:43:22.279Z,5.25
2017-09-18T17:45:50.730Z,4.95
2017-09-18T17:48:19.131Z,4.22
2017-09-18T17:50:48.995Z,4.65
2017-09-18T17:53:18.259Z,3.95
2017-09-18T17:55:46.651Z,5.12
2017-09-18T17:58:15.031Z,4.50
2017-09-18T18:00:43.454Z,11.12
2017-09-18T18:03:12.813Z,29.05
2017-09-18T18:05:41.260Z,26.25
2017-09-18T18:08:09.861Z,14.32
2017-09-18T18:10:38.479Z,10.60
2017-09-18T18:13:06.883Z,5.75
2017-09-18T18:15:36.363Z,2.78
2017-09-18T18:18:04.840Z,6.75
2017-09-18T18:20:33.346Z,2.45
2017-09-18T18:23:02.746Z,2.00
2017-09-18T18:25:32.135Z,2.40
2017-09-18T18:28:00.716Z,2.10
2017-09-18T18:30:30.278Z,3.12
2017-09-18T18:32:58.924Z,2.97
2017-09-18T18:35:28.307Z,4.53
2017-09-18T18:37:56.953Z,1.83
2017-09-18T18:40:25.368Z,1.60
2017-09-18T18:42:53.787Z,4.18
2017-09-18T18:45:22.268Z,7.95
2017-09-18T18:47:50.801Z,4.57
2017-09-18T18:50:19.242Z,2.12
2017-09-18T18:52:47.672Z,3.90
2017-09-18T18:55:16.100Z,3.28
2017-09-18T18:57:44.571Z,2.50
2017-09-18T19:00:13.226Z,2.45
2017-09-18T19:02:41.671Z,5.50
2017-09-18T19:05:10.105Z,7.80
2017-09-18T19:07:38.871Z,7.50
2017-09-18T19:10:07.383Z,9.27
2017-09-18T19:12:35.874Z,4.85
2017-09-18T19:15:04.354Z,3.20
2017-09-18T19:17:32.938Z,73.15
2017-09-18T19:20:01.344Z,28.95
2017-09-18T19:22:29.833Z,41.08
2017-09-18T19:24:58.279Z,115.88
2017-09-18T19:27:26.692Z,50.53
2017-09-18T19:29:55.151Z,26.73
2017-09-18T19:32:23.590Z,20.30
2017-09-18T19:34:52.795Z,16.00
2017-09-18T19:37:21.981Z,12.60
2017-09-18T19:39:51.201Z,9.05
2017-09-18T19:42:19.691Z,7.22
2017-09-18T19:44:48.393Z,5.80
2017-09-18T19:47:16.778Z,4.12
2017-09-18T19:49:45.712Z,2.92
2017-09-18T19:52:15.215Z,9.80
2017-09-18T19:54:43.608Z,6.40
2017-09-18T19:57:11.986Z,9.38
2017-09-18T19:59:41.183Z,6.05
2017-09-18T20:02:09.617Z,10.18
2017-09-18T20:04:38.018Z,9.65
2017-09-18T20:07:06.494Z,9.70
2017-09-18T20:09:35.002Z,8.88
2017-09-18T20:12:04.200Z,5.95
2017-09-18T20:14:32.679Z,5.32
2017-09-18T20:17:01.816Z,2.67
2017-09-18T20:19:30.248Z,2.20
2017-09-18T20:21:59.463Z,2.25
2017-09-18T20:24:28.736Z,2.78
2017-09-18T20:26:57.146Z,2.97
2017-09-18T20:29:25.633Z,3.00
2017-09-18T20:31:54.033Z,3.33
2017-09-18T20:34:22.427Z,3.60
2017-09-18T20:36:50.956Z,3.22
2017-09-18T20:39:20.106Z,3.28
2017-09-18T20:41:48.533Z,2.97
2017-09-18T20:44:17.814Z,2.33
2017-09-18T20:46:46.236Z,3.00
2017-09-18T20:49:14.710Z,2.62
2017-09-18T20:51:43.179Z,2.80
2017-09-18T20:54:11.569Z,3.25
2017-09-18T20:56:39.950Z,3.12
2017-09-18T20:59:08.357Z,4.30
2017-09-18T21:01:36.769Z,8.80
2017-09-18T21:04:05.268Z,11.07
2017-09-18T21:06:34.492Z,7.80
2017-09-18T21:09:02.951Z,5.07
2017-09-18T21:11:31.402Z,3.58
2017-09-18T21:13:59.890Z,3.58
2017-09-18T21:16:28.361Z,3.55
2017-09-18T21:18:56.843Z,2.90
2017-09-18T21:21:25.249Z,2.85
2017-09-18T21:23:53.861Z,3.60
2017-09-18T21:26:22.257Z,3.30
2017-09-18T21:28:50.671Z,4.50
2017-09-18T21:31:19.086Z,3.50
2017-09-18T21:33:47.686Z,3.65
2017-09-18T21:36:16.197Z,3.45
2017-09-18T21:38:44.619Z,3.60
2017-09-18T21:41:13.028Z,3.47
2017-09-18T21:43:41.493Z,3.58
2017-09-18T21:46:09.892Z,4.05
2017-09-18T21:48:38.268Z,3.80
2017-09-18T21:51:06.715Z,4.00
2017-09-18T21:53:35.121Z,3.83
2017-09-18T21:56:03.502Z,5.22
2017-09-18T21:58:32.171Z,4.95
2017-09-18T22:01:00.629Z,4.32
2017-09-18T22:03:29.794Z,4.40
2017-09-18T22:05:58.221Z,4.80
2017-09-18T22:08:26.639Z,5.05
2017-09-18T22:10:55.051Z,4.18
2017-09-18T22:13:23.483Z,4.82
2017-09-18T22:15:51.858Z,5.62
2017-09-18T22:18:20.263Z,4.68
2017-09-18T22:20:48.845Z,4.90
2017-09-18T22:23:17.231Z,6.10
2017-09-18T22:25:45.703Z,4.97
2017-09-18T22:28:14.114Z,4.20
2017-09-18T22:30:43.282Z,4.65
2017-09-18T22:33:11.668Z,4.45
2017-09-18T22:35:40.079Z,4.70
2017-09-18T22:38:08.472Z,4.00
2017-09-18T22:40:36.880Z,3.45
2017-09-18T22:43:05.320Z,4.15
2017-09-18T22:45:34.461Z,3.37
2017-09-18T22:48:02.848Z,3.97
2017-09-18T22:50:31.314Z,3.70
2017-09-18T22:52:59.701Z,3.72
2017-09-18T22:55:28.129Z,4.18
2017-09-18T22:57:57.329Z,4.35
2017-09-18T23:00:25.734Z,4.57
2017-09-18T23:02:54.120Z,4.50
2017-09-18T23:05:22.595Z,5.22
2017-09-18T23:07:51.036Z,5.60
2017-09-18T23:10:20.194Z,5.15
2017-09-18T23:12:48.598Z,4.53
2017-09-18T23:15:16.974Z,4.62
2017-09-18T23:17:45.377Z,4.20
2017-09-18T23:20:14.551Z,4.00
2017-09-18T23:22:42.937Z,3.75
2017-09-18T23:25:11.401Z,3.65
2017-09-18T23:27:39.846Z,4.20
2017-09-18T23:30:08.243Z,4.55
2017-09-18T23:32:36.636Z,3.80
2017-09-18T23:35:05.062Z,5.78
2017-09-18T23:37:33.472Z,3.87
2017-09-18T23:40:01.863Z,5.45
2017-09-18T23:42:30.266Z,5.97
2017-09-18T23:44:58.683Z,4.10
2017-09-18T23:47:27.073Z,4.10
2017-09-18T23:49:55.541Z,4.95
2017-09-18T23:52:23.927Z,4.85
2017-09-18T23:54:52.329Z,4.85
2017-09-18T23:57:20.749Z,3.95
2017-09-18T23:59:49.898Z,4.72
